Berkeley, United Kingdom
Current Conditions -  °F | °C
As of 5:50 PM on Saturday 20 Dec 2014 (Local Time) from EGBJ Reporting Station
Few Clouds Few Clouds  
Wind Chill: 40°   Ceiling: Unl
Heat Index: 45°   Visibility: 6mi
Dew Point: 39°   Wind: 9mph
Humidity: 81%   Direction: 270°W
Pressure: 30.42"   Gusts: NA
Location:  51.69°N, 2.46°W
Report Text: EGBJ 201750Z 27008KT 9999 FEW030 07/04 Q1030
Loading
Personal Weather Stations






























Interactive Weather Map New forecast layout! Learn more

10-Day Weather Forecast

Advertisements
Track Severe Weather on mobile